sensor_id;sensor_type;location;lat;lon;timestamp;P1;durP1;ratioP1;P2;durP2;ratioP2
23155;SDS011;11746;50.876;4.246;2024-01-30T00:00:16;7.20;;;4.65;;
23155;SDS011;11746;50.876;4.246;2024-01-30T00:02:42;9.00;;;4.78;;
23155;SDS011;11746;50.876;4.246;2024-01-30T00:05:10;7.93;;;4.70;;
23155;SDS011;11746;50.876;4.246;2024-01-30T00:07:36;8.55;;;4.60;;
23155;SDS011;11746;50.876;4.246;2024-01-30T00:10:02;9.52;;;4.97;;
23155;SDS011;11746;50.876;4.246;2024-01-30T00:12:31;7.15;;;4.90;;
23155;SDS011;11746;50.876;4.246;2024-01-30T00:14:57;8.45;;;4.63;;
23155;SDS011;11746;50.876;4.246;2024-01-30T00:17:23;7.78;;;4.80;;
23155;SDS011;11746;50.876;4.246;2024-01-30T00:19:50;6.40;;;4.50;;
23155;SDS011;11746;50.876;4.246;2024-01-30T00:22:15;9.73;;;5.10;;
23155;SDS011;11746;50.876;4.246;2024-01-30T00:24:41;7.95;;;5.63;;
23155;SDS011;11746;50.876;4.246;2024-01-30T00:27:09;7.10;;;4.35;;
23155;SDS011;11746;50.876;4.246;2024-01-30T00:29:35;8.13;;;4.70;;
23155;SDS011;11746;50.876;4.246;2024-01-30T00:32:01;7.55;;;4.93;;
23155;SDS011;11746;50.876;4.246;2024-01-30T00:34:28;8.40;;;4.90;;
23155;SDS011;11746;50.876;4.246;2024-01-30T00:36:54;7.50;;;5.05;;
23155;SDS011;11746;50.876;4.246;2024-01-30T00:39:22;9.30;;;4.65;;
23155;SDS011;11746;50.876;4.246;2024-01-30T00:41:48;7.55;;;5.13;;
23155;SDS011;11746;50.876;4.246;2024-01-30T00:44:14;9.32;;;5.18;;
23155;SDS011;11746;50.876;4.246;2024-01-30T00:46:42;8.63;;;4.78;;
23155;SDS011;11746;50.876;4.246;2024-01-30T00:49:07;8.38;;;4.63;;
23155;SDS011;11746;50.876;4.246;2024-01-30T00:51:33;8.10;;;5.10;;
23155;SDS011;11746;50.876;4.246;2024-01-30T00:53:59;8.60;;;5.35;;
23155;SDS011;11746;50.876;4.246;2024-01-30T00:56:27;8.00;;;4.80;;
23155;SDS011;11746;50.876;4.246;2024-01-30T00:58:55;9.43;;;5.18;;
23155;SDS011;11746;50.876;4.246;2024-01-30T01:01:21;6.18;;;4.10;;
23155;SDS011;11746;50.876;4.246;2024-01-30T01:03:49;8.35;;;5.00;;
23155;SDS011;11746;50.876;4.246;2024-01-30T01:06:15;7.15;;;5.30;;
23155;SDS011;11746;50.876;4.246;2024-01-30T01:08:40;9.98;;;5.10;;
23155;SDS011;11746;50.876;4.246;2024-01-30T01:11:06;8.88;;;5.20;;
23155;SDS011;11746;50.876;4.246;2024-01-30T01:13:31;7.93;;;5.07;;
23155;SDS011;11746;50.876;4.246;2024-01-30T01:15:59;7.65;;;4.47;;
23155;SDS011;11746;50.876;4.246;2024-01-30T01:18:25;7.72;;;5.10;;
23155;SDS011;11746;50.876;4.246;2024-01-30T01:20:53;9.88;;;5.30;;
23155;SDS011;11746;50.876;4.246;2024-01-30T01:23:18;11.75;;;5.20;;
23155;SDS011;11746;50.876;4.246;2024-01-30T01:25:46;8.35;;;4.85;;
23155;SDS011;11746;50.876;4.246;2024-01-30T01:28:12;8.95;;;5.13;;
23155;SDS011;11746;50.876;4.246;2024-01-30T01:30:37;9.93;;;5.68;;
23155;SDS011;11746;50.876;4.246;2024-01-30T01:33:06;10.07;;;5.13;;
23155;SDS011;11746;50.876;4.246;2024-01-30T01:35:35;8.45;;;4.93;;
23155;SDS011;11746;50.876;4.246;2024-01-30T01:38:03;8.27;;;5.10;;
23155;SDS011;11746;50.876;4.246;2024-01-30T01:40:29;7.38;;;4.60;;
23155;SDS011;11746;50.876;4.246;2024-01-30T01:42:57;7.95;;;4.90;;
23155;SDS011;11746;50.876;4.246;2024-01-30T01:45:23;8.18;;;4.40;;
23155;SDS011;11746;50.876;4.246;2024-01-30T01:47:53;8.13;;;5.25;;
23155;SDS011;11746;50.876;4.246;2024-01-30T01:50:21;9.90;;;5.13;;
23155;SDS011;11746;50.876;4.246;2024-01-30T01:52:48;8.15;;;5.13;;
23155;SDS011;11746;50.876;4.246;2024-01-30T01:55:14;9.75;;;5.03;;
23155;SDS011;11746;50.876;4.246;2024-01-30T01:57:44;8.40;;;5.22;;
23155;SDS011;11746;50.876;4.246;2024-01-30T02:00:15;8.68;;;5.22;;
23155;SDS011;11746;50.876;4.246;2024-01-30T02:02:41;9.00;;;5.18;;
23155;SDS011;11746;50.876;4.246;2024-01-30T02:05:12;9.02;;;4.88;;
23155;SDS011;11746;50.876;4.246;2024-01-30T02:07:39;8.48;;;5.45;;
23155;SDS011;11746;50.876;4.246;2024-01-30T02:10:10;8.13;;;4.35;;
23155;SDS011;11746;50.876;4.246;2024-01-30T02:12:37;8.35;;;5.28;;
23155;SDS011;11746;50.876;4.246;2024-01-30T02:15:06;8.30;;;5.05;;
23155;SDS011;11746;50.876;4.246;2024-01-30T02:17:33;9.07;;;5.30;;
23155;SDS011;11746;50.876;4.246;2024-01-30T02:20:02;9.70;;;5.43;;
23155;SDS011;11746;50.876;4.246;2024-01-30T02:22:28;8.10;;;4.88;;
23155;SDS011;11746;50.876;4.246;2024-01-30T02:24:54;8.05;;;5.20;;
23155;SDS011;11746;50.876;4.246;2024-01-30T02:27:22;10.70;;;5.18;;
23155;SDS011;11746;50.876;4.246;2024-01-30T02:29:50;11.63;;;5.75;;
23155;SDS011;11746;50.876;4.246;2024-01-30T02:32:18;9.32;;;4.95;;
23155;SDS011;11746;50.876;4.246;2024-01-30T02:34:44;10.10;;;5.45;;
23155;SDS011;11746;50.876;4.246;2024-01-30T02:37:09;8.30;;;5.05;;
23155;SDS011;11746;50.876;4.246;2024-01-30T02:39:35;9.35;;;5.30;;
23155;SDS011;11746;50.876;4.246;2024-01-30T02:42:03;10.52;;;5.43;;
23155;SDS011;11746;50.876;4.246;2024-01-30T02:44:29;10.27;;;5.03;;
23155;SDS011;11746;50.876;4.246;2024-01-30T02:46:59;10.02;;;5.68;;
23155;SDS011;11746;50.876;4.246;2024-01-30T02:49:24;11.82;;;5.75;;
23155;SDS011;11746;50.876;4.246;2024-01-30T02:51:51;13.15;;;6.38;;
23155;SDS011;11746;50.876;4.246;2024-01-30T02:54:17;9.98;;;5.53;;
23155;SDS011;11746;50.876;4.246;2024-01-30T02:56:43;8.52;;;4.88;;
23155;SDS011;11746;50.876;4.246;2024-01-30T02:59:08;11.00;;;5.30;;
23155;SDS011;11746;50.876;4.246;2024-01-30T03:01:45;10.95;;;5.38;;
23155;SDS011;11746;50.876;4.246;2024-01-30T03:04:11;9.32;;;5.13;;
23155;SDS011;11746;50.876;4.246;2024-01-30T03:06:44;11.45;;;5.43;;
23155;SDS011;11746;50.876;4.246;2024-01-30T03:09:11;11.38;;;5.50;;
23155;SDS011;11746;50.876;4.246;2024-01-30T03:11:36;11.90;;;5.55;;
23155;SDS011;11746;50.876;4.246;2024-01-30T03:14:04;8.52;;;5.00;;
23155;SDS011;11746;50.876;4.246;2024-01-30T03:16:29;9.85;;;5.30;;
23155;SDS011;11746;50.876;4.246;2024-01-30T03:19:02;9.43;;;4.72;;
23155;SDS011;11746;50.876;4.246;2024-01-30T03:21:30;8.77;;;5.72;;
23155;SDS011;11746;50.876;4.246;2024-01-30T03:23:55;9.13;;;5.38;;
23155;SDS011;11746;50.876;4.246;2024-01-30T03:26:21;11.95;;;5.57;;
23155;SDS011;11746;50.876;4.246;2024-01-30T03:28:49;10.70;;;5.40;;
23155;SDS011;11746;50.876;4.246;2024-01-30T03:31:15;9.15;;;5.60;;
23155;SDS011;11746;50.876;4.246;2024-01-30T03:33:41;9.50;;;5.75;;
23155;SDS011;11746;50.876;4.246;2024-01-30T03:36:11;10.23;;;5.47;;
23155;SDS011;11746;50.876;4.246;2024-01-30T03:38:37;9.55;;;5.60;;
23155;SDS011;11746;50.876;4.246;2024-01-30T03:41:02;7.75;;;4.82;;
23155;SDS011;11746;50.876;4.246;2024-01-30T03:43:28;8.15;;;4.90;;
23155;SDS011;11746;50.876;4.246;2024-01-30T03:45:54;9.32;;;5.55;;
23155;SDS011;11746;50.876;4.246;2024-01-30T03:48:22;8.23;;;4.93;;
23155;SDS011;11746;50.876;4.246;2024-01-30T03:50:47;7.18;;;4.70;;
23155;SDS011;11746;50.876;4.246;2024-01-30T03:53:13;6.22;;;4.72;;
23155;SDS011;11746;50.876;4.246;2024-01-30T03:55:42;7.85;;;5.07;;
23155;SDS011;11746;50.876;4.246;2024-01-30T03:58:10;12.38;;;5.55;;
23155;SDS011;11746;50.876;4.246;2024-01-30T04:00:35;10.77;;;5.18;;
23155;SDS011;11746;50.876;4.246;2024-01-30T04:03:03;9.70;;;4.75;;
23155;SDS011;11746;50.876;4.246;2024-01-30T04:05:31;12.32;;;4.80;;
23155;SDS011;11746;50.876;4.246;2024-01-30T04:07:57;9.70;;;5.05;;
23155;SDS011;11746;50.876;4.246;2024-01-30T04:10:23;12.48;;;5.60;;
23155;SDS011;11746;50.876;4.246;2024-01-30T04:12:50;10.35;;;5.40;;
23155;SDS011;11746;50.876;4.246;2024-01-30T04:15:19;11.80;;;6.05;;
23155;SDS011;11746;50.876;4.246;2024-01-30T04:17:45;13.77;;;6.28;;
23155;SDS011;11746;50.876;4.246;2024-01-30T04:20:14;11.63;;;5.40;;
23155;SDS011;11746;50.876;4.246;2024-01-30T04:22:43;11.82;;;5.80;;
23155;SDS011;11746;50.876;4.246;2024-01-30T04:25:09;9.57;;;5.28;;
23155;SDS011;11746;50.876;4.246;2024-01-30T04:27:35;11.20;;;6.45;;
23155;SDS011;11746;50.876;4.246;2024-01-30T04:30:01;9.50;;;5.10;;
23155;SDS011;11746;50.876;4.246;2024-01-30T04:32:26;12.00;;;5.88;;
23155;SDS011;11746;50.876;4.246;2024-01-30T04:34:52;10.15;;;6.22;;
23155;SDS011;11746;50.876;4.246;2024-01-30T04:37:22;10.88;;;5.68;;
23155;SDS011;11746;50.876;4.246;2024-01-30T04:39:48;11.45;;;5.78;;
23155;SDS011;11746;50.876;4.246;2024-01-30T04:42:17;12.85;;;6.60;;
23155;SDS011;11746;50.876;4.246;2024-01-30T04:44:45;12.48;;;6.03;;
23155;SDS011;11746;50.876;4.246;2024-01-30T04:47:10;12.75;;;6.03;;
23155;SDS011;11746;50.876;4.246;2024-01-30T04:49:38;9.82;;;5.80;;
23155;SDS011;11746;50.876;4.246;2024-01-30T04:52:04;9.90;;;6.07;;
23155;SDS011;11746;50.876;4.246;2024-01-30T04:54:30;13.65;;;6.57;;
23155;SDS011;11746;50.876;4.246;2024-01-30T04:56:56;12.98;;;6.10;;
23155;SDS011;11746;50.876;4.246;2024-01-30T04:59:22;10.95;;;5.57;;
23155;SDS011;11746;50.876;4.246;2024-01-30T05:01:47;10.75;;;6.05;;
23155;SDS011;11746;50.876;4.246;2024-01-30T05:04:13;10.40;;;5.78;;
23155;SDS011;11746;50.876;4.246;2024-01-30T05:06:39;12.18;;;5.15;;
23155;SDS011;11746;50.876;4.246;2024-01-30T05:09:04;10.13;;;5.55;;
23155;SDS011;11746;50.876;4.246;2024-01-30T05:11:30;9.40;;;5.70;;
23155;SDS011;11746;50.876;4.246;2024-01-30T05:13:56;12.85;;;6.07;;
23155;SDS011;11746;50.876;4.246;2024-01-30T05:16:21;11.55;;;5.90;;
23155;SDS011;11746;50.876;4.246;2024-01-30T05:18:50;9.88;;;5.57;;
23155;SDS011;11746;50.876;4.246;2024-01-30T05:21:17;11.93;;;5.68;;
23155;SDS011;11746;50.876;4.246;2024-01-30T05:23:43;11.15;;;5.60;;
23155;SDS011;11746;50.876;4.246;2024-01-30T05:26:09;9.45;;;5.95;;
23155;SDS011;11746;50.876;4.246;2024-01-30T05:28:35;12.60;;;6.13;;
23155;SDS011;11746;50.876;4.246;2024-01-30T05:31:05;15.38;;;6.10;;
23155;SDS011;11746;50.876;4.246;2024-01-30T05:33:30;10.20;;;6.07;;
23155;SDS011;11746;50.876;4.246;2024-01-30T05:35:58;14.75;;;6.28;;
23155;SDS011;11746;50.876;4.246;2024-01-30T05:38:24;14.85;;;6.10;;
23155;SDS011;11746;50.876;4.246;2024-01-30T05:40:52;12.23;;;6.45;;
23155;SDS011;11746;50.876;4.246;2024-01-30T05:43:17;13.77;;;6.72;;
23155;SDS011;11746;50.876;4.246;2024-01-30T05:45:43;14.48;;;5.72;;
23155;SDS011;11746;50.876;4.246;2024-01-30T05:48:09;11.88;;;6.03;;
23155;SDS011;11746;50.876;4.246;2024-01-30T05:50:35;9.90;;;5.53;;
23155;SDS011;11746;50.876;4.246;2024-01-30T05:53:00;9.93;;;5.45;;
23155;SDS011;11746;50.876;4.246;2024-01-30T05:55:26;13.48;;;5.28;;
23155;SDS011;11746;50.876;4.246;2024-01-30T05:57:52;10.43;;;5.15;;
23155;SDS011;11746;50.876;4.246;2024-01-30T06:00:18;10.82;;;5.38;;
23155;SDS011;11746;50.876;4.246;2024-01-30T06:02:44;9.57;;;5.10;;
23155;SDS011;11746;50.876;4.246;2024-01-30T06:05:09;9.32;;;5.10;;
23155;SDS011;11746;50.876;4.246;2024-01-30T06:07:35;9.02;;;5.60;;
23155;SDS011;11746;50.876;4.246;2024-01-30T06:10:01;9.93;;;5.05;;
23155;SDS011;11746;50.876;4.246;2024-01-30T06:12:27;9.77;;;4.72;;
23155;SDS011;11746;50.876;4.246;2024-01-30T06:14:53;6.90;;;4.60;;
23155;SDS011;11746;50.876;4.246;2024-01-30T06:17:21;7.63;;;4.70;;
23155;SDS011;11746;50.876;4.246;2024-01-30T06:19:50;7.47;;;4.70;;
23155;SDS011;11746;50.876;4.246;2024-01-30T06:22:18;8.50;;;5.10;;
23155;SDS011;11746;50.876;4.246;2024-01-30T06:24:46;8.52;;;5.00;;
23155;SDS011;11746;50.876;4.246;2024-01-30T06:27:14;11.05;;;5.40;;
23155;SDS011;11746;50.876;4.246;2024-01-30T06:29:43;10.20;;;5.20;;
23155;SDS011;11746;50.876;4.246;2024-01-30T06:32:09;8.38;;;5.00;;
23155;SDS011;11746;50.876;4.246;2024-01-30T06:34:34;6.45;;;4.85;;
23155;SDS011;11746;50.876;4.246;2024-01-30T06:37:00;10.10;;;5.25;;
23155;SDS011;11746;50.876;4.246;2024-01-30T06:39:31;10.75;;;5.38;;
23155;SDS011;11746;50.876;4.246;2024-01-30T06:41:56;11.57;;;6.05;;
23155;SDS011;11746;50.876;4.246;2024-01-30T06:44:22;9.13;;;5.00;;
23155;SDS011;11746;50.876;4.246;2024-01-30T06:46:47;9.82;;;5.65;;
23155;SDS011;11746;50.876;4.246;2024-01-30T06:49:13;10.38;;;5.65;;
23155;SDS011;11746;50.876;4.246;2024-01-30T06:51:39;8.38;;;5.30;;
23155;SDS011;11746;50.876;4.246;2024-01-30T06:54:04;8.85;;;5.45;;
23155;SDS011;11746;50.876;4.246;2024-01-30T06:56:32;11.23;;;5.32;;
23155;SDS011;11746;50.876;4.246;2024-01-30T06:58:58;9.52;;;5.85;;
23155;SDS011;11746;50.876;4.246;2024-01-30T07:01:30;7.90;;;4.97;;
23155;SDS011;11746;50.876;4.246;2024-01-30T07:03:58;10.48;;;5.40;;
23155;SDS011;11746;50.876;4.246;2024-01-30T07:06:25;11.70;;;6.07;;
23155;SDS011;11746;50.876;4.246;2024-01-30T07:08:53;12.07;;;5.80;;
23155;SDS011;11746;50.876;4.246;2024-01-30T07:11:19;9.30;;;5.50;;
23155;SDS011;11746;50.876;4.246;2024-01-30T07:13:50;10.07;;;5.93;;
23155;SDS011;11746;50.876;4.246;2024-01-30T07:16:18;13.02;;;6.15;;
23155;SDS011;11746;50.876;4.246;2024-01-30T07:18:44;10.93;;;5.95;;
23155;SDS011;11746;50.876;4.246;2024-01-30T07:21:10;12.30;;;6.35;;
23155;SDS011;11746;50.876;4.246;2024-01-30T07:23:36;15.65;;;7.03;;
23155;SDS011;11746;50.876;4.246;2024-01-30T07:26:04;13.90;;;6.10;;
23155;SDS011;11746;50.876;4.246;2024-01-30T07:28:30;14.23;;;6.72;;
23155;SDS011;11746;50.876;4.246;2024-01-30T07:30:57;11.85;;;6.90;;
23155;SDS011;11746;50.876;4.246;2024-01-30T07:33:23;13.98;;;6.95;;
23155;SDS011;11746;50.876;4.246;2024-01-30T07:35:51;15.25;;;6.38;;
23155;SDS011;11746;50.876;4.246;2024-01-30T07:38:20;14.40;;;6.93;;
23155;SDS011;11746;50.876;4.246;2024-01-30T07:40:48;15.02;;;7.22;;
23155;SDS011;11746;50.876;4.246;2024-01-30T07:43:17;23.25;;;8.60;;
23155;SDS011;11746;50.876;4.246;2024-01-30T07:45:45;14.65;;;7.55;;
23155;SDS011;11746;50.876;4.246;2024-01-30T07:48:10;21.55;;;8.00;;
23155;SDS011;11746;50.876;4.246;2024-01-30T07:50:39;16.00;;;7.63;;
23155;SDS011;11746;50.876;4.246;2024-01-30T07:53:04;14.05;;;7.75;;
23155;SDS011;11746;50.876;4.246;2024-01-30T07:55:30;14.63;;;7.47;;
23155;SDS011;11746;50.876;4.246;2024-01-30T07:57:58;18.98;;;7.57;;
23155;SDS011;11746;50.876;4.246;2024-01-30T08:00:24;16.15;;;7.38;;
23155;SDS011;11746;50.876;4.246;2024-01-30T08:02:50;15.05;;;7.03;;
23155;SDS011;11746;50.876;4.246;2024-01-30T08:05:19;17.38;;;8.13;;
23155;SDS011;11746;50.876;4.246;2024-01-30T08:07:47;15.18;;;7.20;;
23155;SDS011;11746;50.876;4.246;2024-01-30T08:10:14;13.80;;;6.68;;
23155;SDS011;11746;50.876;4.246;2024-01-30T08:12:43;15.43;;;7.00;;
23155;SDS011;11746;50.876;4.246;2024-01-30T08:15:09;15.55;;;7.38;;
23155;SDS011;11746;50.876;4.246;2024-01-30T08:17:35;16.20;;;7.22;;
23155;SDS011;11746;50.876;4.246;2024-01-30T08:20:00;10.48;;;6.28;;
23155;SDS011;11746;50.876;4.246;2024-01-30T08:22:26;15.77;;;7.47;;
23155;SDS011;11746;50.876;4.246;2024-01-30T08:24:52;15.05;;;6.53;;
23155;SDS011;11746;50.876;4.246;2024-01-30T08:27:19;13.38;;;7.05;;
23155;SDS011;11746;50.876;4.246;2024-01-30T08:29:45;14.60;;;6.95;;
23155;SDS011;11746;50.876;4.246;2024-01-30T08:32:15;12.45;;;6.40;;
23155;SDS011;11746;50.876;4.246;2024-01-30T08:34:43;11.02;;;6.60;;
23155;SDS011;11746;50.876;4.246;2024-01-30T08:37:09;11.48;;;6.47;;
23155;SDS011;11746;50.876;4.246;2024-01-30T08:39:35;12.65;;;6.47;;
23155;SDS011;11746;50.876;4.246;2024-01-30T08:42:00;13.20;;;6.40;;
23155;SDS011;11746;50.876;4.246;2024-01-30T08:44:26;15.07;;;6.25;;
23155;SDS011;11746;50.876;4.246;2024-01-30T08:46:52;15.07;;;6.68;;
23155;SDS011;11746;50.876;4.246;2024-01-30T08:49:19;14.35;;;7.00;;
23155;SDS011;11746;50.876;4.246;2024-01-30T08:51:45;11.30;;;6.18;;
23155;SDS011;11746;50.876;4.246;2024-01-30T08:54:13;13.40;;;5.93;;
23155;SDS011;11746;50.876;4.246;2024-01-30T08:56:38;15.00;;;7.53;;
23155;SDS011;11746;50.876;4.246;2024-01-30T08:59:04;13.43;;;6.57;;
23155;SDS011;11746;50.876;4.246;2024-01-30T09:01:30;10.90;;;5.95;;
23155;SDS011;11746;50.876;4.246;2024-01-30T09:03:57;14.82;;;6.30;;
23155;SDS011;11746;50.876;4.246;2024-01-30T09:06:23;12.88;;;6.85;;
23155;SDS011;11746;50.876;4.246;2024-01-30T09:08:51;13.63;;;6.78;;
23155;SDS011;11746;50.876;4.246;2024-01-30T09:11:17;12.60;;;6.60;;
23155;SDS011;11746;50.876;4.246;2024-01-30T09:13:44;12.23;;;7.03;;
23155;SDS011;11746;50.876;4.246;2024-01-30T09:16:10;18.13;;;6.85;;
23155;SDS011;11746;50.876;4.246;2024-01-30T09:18:36;11.50;;;6.75;;
23155;SDS011;11746;50.876;4.246;2024-01-30T09:21:01;10.00;;;6.30;;
23155;SDS011;11746;50.876;4.246;2024-01-30T09:23:27;11.65;;;5.68;;
23155;SDS011;11746;50.876;4.246;2024-01-30T09:25:55;10.75;;;6.28;;
23155;SDS011;11746;50.876;4.246;2024-01-30T09:28:23;12.40;;;6.32;;
23155;SDS011;11746;50.876;4.246;2024-01-30T09:30:52;10.65;;;6.13;;
23155;SDS011;11746;50.876;4.246;2024-01-30T09:33:20;11.77;;;6.07;;
23155;SDS011;11746;50.876;4.246;2024-01-30T09:35:47;12.65;;;6.22;;
23155;SDS011;11746;50.876;4.246;2024-01-30T09:38:13;11.88;;;6.70;;
23155;SDS011;11746;50.876;4.246;2024-01-30T09:40:39;10.55;;;6.78;;
23155;SDS011;11746;50.876;4.246;2024-01-30T09:43:09;12.15;;;6.65;;
23155;SDS011;11746;50.876;4.246;2024-01-30T09:45:42;15.05;;;7.50;;
23155;SDS011;11746;50.876;4.246;2024-01-30T09:48:09;14.48;;;8.18;;
23155;SDS011;11746;50.876;4.246;2024-01-30T09:50:37;13.15;;;8.00;;
23155;SDS011;11746;50.876;4.246;2024-01-30T09:53:06;12.18;;;7.15;;
23155;SDS011;11746;50.876;4.246;2024-01-30T09:55:36;14.32;;;8.07;;
23155;SDS011;11746;50.876;4.246;2024-01-30T09:58:04;13.25;;;7.93;;
23155;SDS011;11746;50.876;4.246;2024-01-30T10:00:35;12.02;;;8.35;;
23155;SDS011;11746;50.876;4.246;2024-01-30T10:03:01;15.65;;;8.45;;
23155;SDS011;11746;50.876;4.246;2024-01-30T10:05:27;13.32;;;8.38;;
23155;SDS011;11746;50.876;4.246;2024-01-30T10:07:53;18.33;;;9.52;;
23155;SDS011;11746;50.876;4.246;2024-01-30T10:10:24;15.23;;;8.15;;
23155;SDS011;11746;50.876;4.246;2024-01-30T10:12:51;15.45;;;9.50;;
23155;SDS011;11746;50.876;4.246;2024-01-30T10:15:19;14.40;;;8.68;;
23155;SDS011;11746;50.876;4.246;2024-01-30T10:17:45;15.90;;;9.43;;
23155;SDS011;11746;50.876;4.246;2024-01-30T10:20:11;18.25;;;9.25;;
23155;SDS011;11746;50.876;4.246;2024-01-30T10:22:37;16.52;;;9.10;;
23155;SDS011;11746;50.876;4.246;2024-01-30T10:25:05;17.25;;;9.45;;
23155;SDS011;11746;50.876;4.246;2024-01-30T10:27:32;25.58;;;9.48;;
23155;SDS011;11746;50.876;4.246;2024-01-30T10:29:58;18.63;;;9.20;;
23155;SDS011;11746;50.876;4.246;2024-01-30T10:32:26;13.98;;;8.05;;
23155;SDS011;11746;50.876;4.246;2024-01-30T10:34:55;17.80;;;7.78;;
23155;SDS011;11746;50.876;4.246;2024-01-30T10:37:23;16.27;;;8.10;;
23155;SDS011;11746;50.876;4.246;2024-01-30T10:39:50;16.58;;;7.78;;
23155;SDS011;11746;50.876;4.246;2024-01-30T10:42:21;16.40;;;7.53;;
23155;SDS011;11746;50.876;4.246;2024-01-30T10:44:57;18.45;;;7.60;;
23155;SDS011;11746;50.876;4.246;2024-01-30T10:47:30;15.63;;;6.95;;
23155;SDS011;11746;50.876;4.246;2024-01-30T10:49:59;8.35;;;5.70;;
23155;SDS011;11746;50.876;4.246;2024-01-30T10:52:25;12.52;;;5.05;;
23155;SDS011;11746;50.876;4.246;2024-01-30T10:54:53;8.43;;;3.92;;
23155;SDS011;11746;50.876;4.246;2024-01-30T10:57:20;5.93;;;2.42;;
23155;SDS011;11746;50.876;4.246;2024-01-30T10:59:48;6.78;;;1.63;;
23155;SDS011;11746;50.876;4.246;2024-01-30T11:02:15;5.68;;;1.92;;
23155;SDS011;11746;50.876;4.246;2024-01-30T11:04:43;6.43;;;1.30;;
23155;SDS011;11746;50.876;4.246;2024-01-30T11:07:17;3.58;;;1.13;;
23155;SDS011;11746;50.876;4.246;2024-01-30T11:12:15;3.58;;;1.33;;
23155;SDS011;11746;50.876;4.246;2024-01-30T11:14:41;6.63;;;1.25;;
23155;SDS011;11746;50.876;4.246;2024-01-30T11:17:08;3.78;;;0.80;;
23155;SDS011;11746;50.876;4.246;2024-01-30T11:19:37;4.32;;;0.90;;
23155;SDS011;11746;50.876;4.246;2024-01-30T11:22:03;3.83;;;0.60;;
23155;SDS011;11746;50.876;4.246;2024-01-30T11:24:39;2.47;;;0.90;;
23155;SDS011;11746;50.876;4.246;2024-01-30T11:27:08;1.48;;;0.40;;
23155;SDS011;11746;50.876;4.246;2024-01-30T11:29:35;2.00;;;0.63;;
23155;SDS011;11746;50.876;4.246;2024-01-30T11:32:05;2.88;;;0.60;;
23155;SDS011;11746;50.876;4.246;2024-01-30T11:34:33;3.67;;;0.63;;
23155;SDS011;11746;50.876;4.246;2024-01-30T11:37:04;3.90;;;0.63;;
23155;SDS011;11746;50.876;4.246;2024-01-30T11:39:36;4.47;;;0.80;;
23155;SDS011;11746;50.876;4.246;2024-01-30T11:42:03;3.17;;;0.40;;
23155;SDS011;11746;50.876;4.246;2024-01-30T11:44:29;1.23;;;0.47;;
23155;SDS011;11746;50.876;4.246;2024-01-30T11:46:55;3.30;;;0.50;;
23155;SDS011;11746;50.876;4.246;2024-01-30T11:49:21;1.52;;;0.30;;
23155;SDS011;11746;50.876;4.246;2024-01-30T11:51:48;1.17;;;0.40;;
23155;SDS011;11746;50.876;4.246;2024-01-30T11:54:17;1.98;;;0.50;;
23155;SDS011;11746;50.876;4.246;2024-01-30T11:56:43;2.13;;;0.30;;
23155;SDS011;11746;50.876;4.246;2024-01-30T11:59:11;1.20;;;0.40;;
23155;SDS011;11746;50.876;4.246;2024-01-30T12:01:39;1.90;;;0.40;;
23155;SDS011;11746;50.876;4.246;2024-01-30T12:04:07;2.53;;;0.40;;
23155;SDS011;11746;50.876;4.246;2024-01-30T12:06:34;2.03;;;0.68;;
23155;SDS011;11746;50.876;4.246;2024-01-30T12:09:01;1.88;;;0.50;;
23155;SDS011;11746;50.876;4.246;2024-01-30T12:11:32;4.53;;;0.75;;
23155;SDS011;11746;50.876;4.246;2024-01-30T12:14:10;2.50;;;0.60;;
23155;SDS011;11746;50.876;4.246;2024-01-30T12:16:36;3.45;;;0.57;;
23155;SDS011;11746;50.876;4.246;2024-01-30T12:19:04;2.05;;;0.90;;
23155;SDS011;11746;50.876;4.246;2024-01-30T12:21:30;3.92;;;0.60;;
23155;SDS011;11746;50.876;4.246;2024-01-30T12:23:58;3.95;;;0.70;;
23155;SDS011;11746;50.876;4.246;2024-01-30T12:26:25;2.97;;;0.80;;
23155;SDS011;11746;50.876;4.246;2024-01-30T12:28:51;4.20;;;0.70;;
23155;SDS011;11746;50.876;4.246;2024-01-30T12:31:31;3.97;;;0.70;;
23155;SDS011;11746;50.876;4.246;2024-01-30T12:33:59;2.00;;;0.65;;
23155;SDS011;11746;50.876;4.246;2024-01-30T12:36:25;3.10;;;0.80;;
23155;SDS011;11746;50.876;4.246;2024-01-30T12:38:53;3.90;;;0.70;;
23155;SDS011;11746;50.876;4.246;2024-01-30T12:41:19;3.47;;;0.82;;
23155;SDS011;11746;50.876;4.246;2024-01-30T12:43:45;4.35;;;0.60;;
23155;SDS011;11746;50.876;4.246;2024-01-30T12:46:12;5.65;;;0.70;;
23155;SDS011;11746;50.876;4.246;2024-01-30T12:48:40;3.97;;;0.73;;
23155;SDS011;11746;50.876;4.246;2024-01-30T12:51:08;4.70;;;0.52;;
23155;SDS011;11746;50.876;4.246;2024-01-30T12:53:34;2.33;;;0.68;;
23155;SDS011;11746;50.876;4.246;2024-01-30T12:56:02;3.38;;;0.60;;
23155;SDS011;11746;50.876;4.246;2024-01-30T12:58:28;4.38;;;0.68;;
23155;SDS011;11746;50.876;4.246;2024-01-30T13:00:54;5.70;;;1.38;;
23155;SDS011;11746;50.876;4.246;2024-01-30T13:03:19;6.40;;;1.30;;
23155;SDS011;11746;50.876;4.246;2024-01-30T13:05:50;5.05;;;0.70;;
23155;SDS011;11746;50.876;4.246;2024-01-30T13:08:16;5.45;;;0.85;;
23155;SDS011;11746;50.876;4.246;2024-01-30T13:10:41;3.10;;;0.70;;
23155;SDS011;11746;50.876;4.246;2024-01-30T13:13:07;4.57;;;1.05;;
23155;SDS011;11746;50.876;4.246;2024-01-30T13:15:37;4.85;;;1.00;;
23155;SDS011;11746;50.876;4.246;2024-01-30T13:18:02;4.03;;;0.60;;
23155;SDS011;11746;50.876;4.246;2024-01-30T13:20:28;4.97;;;0.85;;
23155;SDS011;11746;50.876;4.246;2024-01-30T13:22:54;5.57;;;0.95;;
23155;SDS011;11746;50.876;4.246;2024-01-30T13:25:19;3.13;;;0.82;;
23155;SDS011;11746;50.876;4.246;2024-01-30T13:27:45;3.80;;;0.82;;
23155;SDS011;11746;50.876;4.246;2024-01-30T13:30:11;5.70;;;0.80;;
23155;SDS011;11746;50.876;4.246;2024-01-30T13:32:37;4.53;;;1.08;;
23155;SDS011;11746;50.876;4.246;2024-01-30T13:35:03;4.13;;;0.77;;
23155;SDS011;11746;50.876;4.246;2024-01-30T13:37:28;4.35;;;0.98;;
23155;SDS011;11746;50.876;4.246;2024-01-30T13:39:57;4.22;;;1.00;;
23155;SDS011;11746;50.876;4.246;2024-01-30T13:42:22;4.13;;;0.90;;
23155;SDS011;11746;50.876;4.246;2024-01-30T13:44:53;3.08;;;0.90;;
23155;SDS011;11746;50.876;4.246;2024-01-30T13:47:18;2.42;;;0.68;;
23155;SDS011;11746;50.876;4.246;2024-01-30T13:49:47;4.30;;;0.75;;
23155;SDS011;11746;50.876;4.246;2024-01-30T13:52:12;7.00;;;0.82;;
23155;SDS011;11746;50.876;4.246;2024-01-30T13:54:38;5.60;;;0.95;;
23155;SDS011;11746;50.876;4.246;2024-01-30T13:57:04;3.40;;;0.80;;
23155;SDS011;11746;50.876;4.246;2024-01-30T13:59:33;4.10;;;1.27;;
23155;SDS011;11746;50.876;4.246;2024-01-30T14:01:59;3.67;;;0.90;;
23155;SDS011;11746;50.876;4.246;2024-01-30T14:04:24;4.10;;;0.65;;
23155;SDS011;11746;50.876;4.246;2024-01-30T14:06:50;2.30;;;0.80;;
23155;SDS011;11746;50.876;4.246;2024-01-30T14:09:16;5.15;;;0.70;;
23155;SDS011;11746;50.876;4.246;2024-01-30T14:11:44;5.18;;;0.85;;
23155;SDS011;11746;50.876;4.246;2024-01-30T14:14:12;6.55;;;1.48;;
23155;SDS011;11746;50.876;4.246;2024-01-30T14:16:37;4.05;;;1.00;;
23155;SDS011;11746;50.876;4.246;2024-01-30T14:19:03;4.28;;;1.20;;
23155;SDS011;11746;50.876;4.246;2024-01-30T14:21:29;3.05;;;0.75;;
23155;SDS011;11746;50.876;4.246;2024-01-30T14:23:57;5.80;;;1.02;;
23155;SDS011;11746;50.876;4.246;2024-01-30T14:26:22;4.68;;;0.80;;
23155;SDS011;11746;50.876;4.246;2024-01-30T14:28:48;2.83;;;0.80;;
23155;SDS011;11746;50.876;4.246;2024-01-30T14:31:14;2.65;;;0.70;;
23155;SDS011;11746;50.876;4.246;2024-01-30T14:33:41;3.17;;;0.70;;
23155;SDS011;11746;50.876;4.246;2024-01-30T14:36:08;2.30;;;0.70;;
23155;SDS011;11746;50.876;4.246;2024-01-30T14:38:34;3.67;;;0.90;;
23155;SDS011;11746;50.876;4.246;2024-01-30T14:41:00;4.55;;;1.02;;
23155;SDS011;11746;50.876;4.246;2024-01-30T14:43:25;1.67;;;0.70;;